sensor_id;sensor_type;location;lat;lon;timestamp;temperature;humidity
20167;DHT22;10243;49.118;8.508;2022-10-30T00:01:59;17.10;99.90
20167;DHT22;10243;49.118;8.508;2022-10-30T00:05:01;17.00;99.90
20167;DHT22;10243;49.118;8.508;2022-10-30T00:08:03;16.90;99.90
20167;DHT22;10243;49.118;8.508;2022-10-30T00:11:08;16.90;99.90
20167;DHT22;10243;49.118;8.508;2022-10-30T00:14:11;17.00;99.90
20167;DHT22;10243;49.118;8.508;2022-10-30T00:17:13;17.00;99.90
20167;DHT22;10243;49.118;8.508;2022-10-30T00:20:15;17.00;99.90
20167;DHT22;10243;49.118;8.508;2022-10-30T00:23:17;17.00;99.90
20167;DHT22;10243;49.118;8.508;2022-10-30T00:26:22;17.10;99.90
20167;DHT22;10243;49.118;8.508;2022-10-30T00:29:24;17.00;99.90
20167;DHT22;10243;49.118;8.508;2022-10-30T00:32:27;17.00;99.90
20167;DHT22;10243;49.118;8.508;2022-10-30T00:35:29;17.00;99.90
20167;DHT22;10243;49.118;8.508;2022-10-30T00:38:31;17.10;99.90
20167;DHT22;10243;49.118;8.508;2022-10-30T00:41:34;17.10;99.90
20167;DHT22;10243;49.118;8.508;2022-10-30T00:44:41;17.00;99.90
20167;DHT22;10243;49.118;8.508;2022-10-30T00:47:50;16.90;99.90
20167;DHT22;10243;49.118;8.508;2022-10-30T00:50:53;16.90;99.90
20167;DHT22;10243;49.118;8.508;2022-10-30T00:53:57;17.00;99.90
20167;DHT22;10243;49.118;8.508;2022-10-30T00:57:02;16.90;99.90
20167;DHT22;10243;49.118;8.508;2022-10-30T01:00:07;17.00;99.90
20167;DHT22;10243;49.118;8.508;2022-10-30T01:03:10;17.00;99.90
20167;DHT22;10243;49.118;8.508;2022-10-30T01:06:14;17.00;99.90
20167;DHT22;10243;49.118;8.508;2022-10-30T01:09:17;17.10;99.90
20167;DHT22;10243;49.118;8.508;2022-10-30T01:12:20;17.00;99.90
20167;DHT22;10243;49.118;8.508;2022-10-30T01:15:27;16.90;99.90
20167;DHT22;10243;49.118;8.508;2022-10-30T01:18:34;16.80;99.90
20167;DHT22;10243;49.118;8.508;2022-10-30T01:21:49;16.80;99.90
20167;DHT22;10243;49.118;8.508;2022-10-30T01:25:02;16.80;99.90
20167;DHT22;10243;49.118;8.508;2022-10-30T01:28:19;16.70;99.90
20167;DHT22;10243;49.118;8.508;2022-10-30T01:31:37;16.80;99.90
20167;DHT22;10243;49.118;8.508;2022-10-30T01:34:46;16.80;99.90
20167;DHT22;10243;49.118;8.508;2022-10-30T01:37:55;16.80;99.90
20167;DHT22;10243;49.118;8.508;2022-10-30T01:40:58;16.70;99.90
20167;DHT22;10243;49.118;8.508;2022-10-30T01:44:05;16.70;99.90
20167;DHT22;10243;49.118;8.508;2022-10-30T01:47:18;16.60;99.90
20167;DHT22;10243;49.118;8.508;2022-10-30T01:50:30;16.70;99.90
20167;DHT22;10243;49.118;8.508;2022-10-30T01:53:45;16.60;99.90
20167;DHT22;10243;49.118;8.508;2022-10-30T01:56:59;16.40;99.90
20167;DHT22;10243;49.118;8.508;2022-10-30T02:00:06;16.40;99.90
20167;DHT22;10243;49.118;8.508;2022-10-30T02:03:19;16.40;99.90
20167;DHT22;10243;49.118;8.508;2022-10-30T02:06:22;16.30;99.90
20167;DHT22;10243;49.118;8.508;2022-10-30T02:09:24;16.30;99.90
20167;DHT22;10243;49.118;8.508;2022-10-30T02:12:27;16.30;99.90
20167;DHT22;10243;49.118;8.508;2022-10-30T02:15:31;16.30;99.90
20167;DHT22;10243;49.118;8.508;2022-10-30T02:18:33;16.30;99.90
20167;DHT22;10243;49.118;8.508;2022-10-30T02:21:37;16.30;99.90
20167;DHT22;10243;49.118;8.508;2022-10-30T02:24:39;16.30;99.90
20167;DHT22;10243;49.118;8.508;2022-10-30T02:27:41;16.30;99.90
20167;DHT22;10243;49.118;8.508;2022-10-30T02:30:45;16.30;99.90
20167;DHT22;10243;49.118;8.508;2022-10-30T02:33:46;16.30;99.90
20167;DHT22;10243;49.118;8.508;2022-10-30T02:36:50;16.20;99.90
20167;DHT22;10243;49.118;8.508;2022-10-30T02:39:54;16.20;99.90
20167;DHT22;10243;49.118;8.508;2022-10-30T02:42:56;16.20;99.90
20167;DHT22;10243;49.118;8.508;2022-10-30T02:45:58;15.90;99.90
20167;DHT22;10243;49.118;8.508;2022-10-30T02:49:00;15.80;99.90
20167;DHT22;10243;49.118;8.508;2022-10-30T02:52:05;15.80;99.90
20167;DHT22;10243;49.118;8.508;2022-10-30T02:55:07;15.90;99.90
20167;DHT22;10243;49.118;8.508;2022-10-30T02:58:11;15.90;99.90
20167;DHT22;10243;49.118;8.508;2022-10-30T03:01:15;16.00;99.90
20167;DHT22;10243;49.118;8.508;2022-10-30T03:04:18;16.00;99.90
20167;DHT22;10243;49.118;8.508;2022-10-30T03:07:21;15.90;99.90
20167;DHT22;10243;49.118;8.508;2022-10-30T03:10:24;16.00;99.90
20167;DHT22;10243;49.118;8.508;2022-10-30T03:13:27;16.00;99.90
20167;DHT22;10243;49.118;8.508;2022-10-30T03:16:29;15.70;99.90
20167;DHT22;10243;49.118;8.508;2022-10-30T03:19:33;15.50;99.90
20167;DHT22;10243;49.118;8.508;2022-10-30T03:22:36;15.40;99.90
20167;DHT22;10243;49.118;8.508;2022-10-30T03:25:38;15.30;99.90
20167;DHT22;10243;49.118;8.508;2022-10-30T03:28:40;15.30;99.90
20167;DHT22;10243;49.118;8.508;2022-10-30T03:31:42;15.20;99.90
20167;DHT22;10243;49.118;8.508;2022-10-30T03:34:52;15.30;99.90
20167;DHT22;10243;49.118;8.508;2022-10-30T03:37:55;15.30;99.90
20167;DHT22;10243;49.118;8.508;2022-10-30T03:40:57;15.40;99.90
20167;DHT22;10243;49.118;8.508;2022-10-30T03:43:59;15.40;99.90
20167;DHT22;10243;49.118;8.508;2022-10-30T03:47:01;15.50;99.90
20167;DHT22;10243;49.118;8.508;2022-10-30T03:50:08;15.50;99.90
20167;DHT22;10243;49.118;8.508;2022-10-30T03:53:11;15.50;99.90
20167;DHT22;10243;49.118;8.508;2022-10-30T03:56:13;15.30;99.90
20167;DHT22;10243;49.118;8.508;2022-10-30T03:59:20;15.30;99.90
20167;DHT22;10243;49.118;8.508;2022-10-30T04:02:50;15.30;99.90
20167;DHT22;10243;49.118;8.508;2022-10-30T04:05:52;15.20;99.90
20167;DHT22;10243;49.118;8.508;2022-10-30T04:08:55;15.10;99.90
20167;DHT22;10243;49.118;8.508;2022-10-30T04:11:58;15.10;99.90
20167;DHT22;10243;49.118;8.508;2022-10-30T04:15:00;15.20;99.90
20167;DHT22;10243;49.118;8.508;2022-10-30T04:18:02;15.30;99.90
20167;DHT22;10243;49.118;8.508;2022-10-30T04:21:05;15.10;99.90
20167;DHT22;10243;49.118;8.508;2022-10-30T04:24:10;15.00;99.90
20167;DHT22;10243;49.118;8.508;2022-10-30T04:27:17;14.90;99.90
20167;DHT22;10243;49.118;8.508;2022-10-30T04:30:20;14.80;99.90
20167;DHT22;10243;49.118;8.508;2022-10-30T04:33:24;14.70;99.90
20167;DHT22;10243;49.118;8.508;2022-10-30T04:36:28;14.80;99.90
20167;DHT22;10243;49.118;8.508;2022-10-30T04:39:36;14.80;99.90
20167;DHT22;10243;49.118;8.508;2022-10-30T04:42:48;14.80;99.90
20167;DHT22;10243;49.118;8.508;2022-10-30T04:45:51;14.70;99.90
20167;DHT22;10243;49.118;8.508;2022-10-30T04:48:52;14.70;99.90
20167;DHT22;10243;49.118;8.508;2022-10-30T04:51:54;14.50;99.90
20167;DHT22;10243;49.118;8.508;2022-10-30T04:54:57;14.40;99.90
20167;DHT22;10243;49.118;8.508;2022-10-30T04:58:00;14.40;99.90
20167;DHT22;10243;49.118;8.508;2022-10-30T05:01:06;14.50;99.90
20167;DHT22;10243;49.118;8.508;2022-10-30T05:04:09;14.60;99.90
20167;DHT22;10243;49.118;8.508;2022-10-30T05:07:11;14.60;99.90
20167;DHT22;10243;49.118;8.508;2022-10-30T05:10:15;14.70;99.90
20167;DHT22;10243;49.118;8.508;2022-10-30T05:13:18;14.70;99.90
20167;DHT22;10243;49.118;8.508;2022-10-30T05:16:20;14.70;99.90
20167;DHT22;10243;49.118;8.508;2022-10-30T05:19:22;14.80;99.90
20167;DHT22;10243;49.118;8.508;2022-10-30T05:22:28;14.70;99.90
20167;DHT22;10243;49.118;8.508;2022-10-30T05:25:31;14.50;99.90
20167;DHT22;10243;49.118;8.508;2022-10-30T05:28:35;14.40;99.90
20167;DHT22;10243;49.118;8.508;2022-10-30T05:31:38;14.40;99.90
20167;DHT22;10243;49.118;8.508;2022-10-30T05:34:52;14.50;99.90
20167;DHT22;10243;49.118;8.508;2022-10-30T05:37:56;14.50;99.90
20167;DHT22;10243;49.118;8.508;2022-10-30T05:41:00;14.50;99.90
20167;DHT22;10243;49.118;8.508;2022-10-30T05:44:02;14.60;99.90
20167;DHT22;10243;49.118;8.508;2022-10-30T05:47:04;14.40;99.90
20167;DHT22;10243;49.118;8.508;2022-10-30T05:50:09;14.30;99.90
20167;DHT22;10243;49.118;8.508;2022-10-30T05:53:12;14.30;99.90
20167;DHT22;10243;49.118;8.508;2022-10-30T05:56:15;14.40;99.90
20167;DHT22;10243;49.118;8.508;2022-10-30T05:59:17;14.20;99.90
20167;DHT22;10243;49.118;8.508;2022-10-30T06:02:19;14.10;99.90
20167;DHT22;10243;49.118;8.508;2022-10-30T06:05:21;14.10;99.90
20167;DHT22;10243;49.118;8.508;2022-10-30T06:08:23;14.00;99.90
20167;DHT22;10243;49.118;8.508;2022-10-30T06:11:30;14.00;99.90
20167;DHT22;10243;49.118;8.508;2022-10-30T06:14:33;14.10;99.90
20167;DHT22;10243;49.118;8.508;2022-10-30T06:17:36;14.10;99.90
20167;DHT22;10243;49.118;8.508;2022-10-30T06:20:49;14.10;99.90
20167;DHT22;10243;49.118;8.508;2022-10-30T06:24:10;14.20;99.90
20167;DHT22;10243;49.118;8.508;2022-10-30T06:27:21;14.30;99.90
20167;DHT22;10243;49.118;8.508;2022-10-30T06:30:23;14.50;99.90
20167;DHT22;10243;49.118;8.508;2022-10-30T06:33:25;14.30;99.90
20167;DHT22;10243;49.118;8.508;2022-10-30T06:36:28;14.30;99.90
20167;DHT22;10243;49.118;8.508;2022-10-30T06:39:32;14.20;99.90
20167;DHT22;10243;49.118;8.508;2022-10-30T06:42:53;14.10;99.90
20167;DHT22;10243;49.118;8.508;2022-10-30T06:46:02;14.00;99.90
20167;DHT22;10243;49.118;8.508;2022-10-30T06:49:06;14.10;99.90
20167;DHT22;10243;49.118;8.508;2022-10-30T06:52:08;14.10;99.90
20167;DHT22;10243;49.118;8.508;2022-10-30T06:55:10;14.10;99.90
20167;DHT22;10243;49.118;8.508;2022-10-30T06:58:39;14.20;99.90
20167;DHT22;10243;49.118;8.508;2022-10-30T07:01:44;14.30;99.90
20167;DHT22;10243;49.118;8.508;2022-10-30T07:04:51;14.40;99.90
20167;DHT22;10243;49.118;8.508;2022-10-30T07:07:55;14.40;99.90
20167;DHT22;10243;49.118;8.508;2022-10-30T07:10:58;14.50;99.90
20167;DHT22;10243;49.118;8.508;2022-10-30T07:14:19;14.60;99.90
20167;DHT22;10243;49.118;8.508;2022-10-30T07:17:32;14.70;99.90
20167;DHT22;10243;49.118;8.508;2022-10-30T07:20:39;14.80;99.90
20167;DHT22;10243;49.118;8.508;2022-10-30T07:23:41;14.90;99.90
20167;DHT22;10243;49.118;8.508;2022-10-30T07:27:12;15.00;99.90
20167;DHT22;10243;49.118;8.508;2022-10-30T07:30:26;15.10;99.90
20167;DHT22;10243;49.118;8.508;2022-10-30T07:33:43;15.30;99.90
20167;DHT22;10243;49.118;8.508;2022-10-30T07:37:12;15.40;99.90
20167;DHT22;10243;49.118;8.508;2022-10-30T07:40:19;15.50;99.90
20167;DHT22;10243;49.118;8.508;2022-10-30T07:43:39;15.60;99.90
20167;DHT22;10243;49.118;8.508;2022-10-30T07:47:18;15.80;99.90
20167;DHT22;10243;49.118;8.508;2022-10-30T07:50:35;15.90;99.90
20167;DHT22;10243;49.118;8.508;2022-10-30T07:53:37;16.00;99.90
20167;DHT22;10243;49.118;8.508;2022-10-30T07:56:39;16.00;99.90
20167;DHT22;10243;49.118;8.508;2022-10-30T08:00:00;16.10;99.90
20167;DHT22;10243;49.118;8.508;2022-10-30T08:03:15;16.20;99.90
20167;DHT22;10243;49.118;8.508;2022-10-30T08:06:29;16.20;99.90
20167;DHT22;10243;49.118;8.508;2022-10-30T08:09:31;16.40;99.90
20167;DHT22;10243;49.118;8.508;2022-10-30T08:12:33;16.50;99.90
20167;DHT22;10243;49.118;8.508;2022-10-30T08:15:35;16.60;99.90
20167;DHT22;10243;49.118;8.508;2022-10-30T08:18:40;16.80;99.90
20167;DHT22;10243;49.118;8.508;2022-10-30T08:21:42;16.80;99.90
20167;DHT22;10243;49.118;8.508;2022-10-30T08:24:50;16.90;99.90
20167;DHT22;10243;49.118;8.508;2022-10-30T08:27:53;17.00;99.90
20167;DHT22;10243;49.118;8.508;2022-10-30T08:30:58;17.10;99.90
20167;DHT22;10243;49.118;8.508;2022-10-30T08:34:21;17.20;99.90
20167;DHT22;10243;49.118;8.508;2022-10-30T08:37:26;17.30;99.90
20167;DHT22;10243;49.118;8.508;2022-10-30T08:40:28;17.30;99.90
20167;DHT22;10243;49.118;8.508;2022-10-30T08:43:37;17.30;99.90
20167;DHT22;10243;49.118;8.508;2022-10-30T08:46:39;17.40;99.90
20167;DHT22;10243;49.118;8.508;2022-10-30T08:49:43;17.50;99.90
20167;DHT22;10243;49.118;8.508;2022-10-30T08:52:46;17.60;99.90
20167;DHT22;10243;49.118;8.508;2022-10-30T08:55:50;17.70;99.90
20167;DHT22;10243;49.118;8.508;2022-10-30T08:59:16;17.80;99.90
20167;DHT22;10243;49.118;8.508;2022-10-30T09:02:19;17.90;99.90
20167;DHT22;10243;49.118;8.508;2022-10-30T09:05:49;18.00;99.90
20167;DHT22;10243;49.118;8.508;2022-10-30T09:08:51;18.10;99.90
20167;DHT22;10243;49.118;8.508;2022-10-30T09:12:06;18.10;99.90
20167;DHT22;10243;49.118;8.508;2022-10-30T09:15:14;18.20;99.90
20167;DHT22;10243;49.118;8.508;2022-10-30T09:18:26;18.30;99.90
20167;DHT22;10243;49.118;8.508;2022-10-30T09:21:30;18.40;99.90
20167;DHT22;10243;49.118;8.508;2022-10-30T09:24:31;18.20;99.90
20167;DHT22;10243;49.118;8.508;2022-10-30T09:27:53;17.80;99.90
20167;DHT22;10243;49.118;8.508;2022-10-30T09:31:00;17.70;99.90
20167;DHT22;10243;49.118;8.508;2022-10-30T09:34:04;17.60;99.90
20167;DHT22;10243;49.118;8.508;2022-10-30T09:37:20;17.60;99.90
20167;DHT22;10243;49.118;8.508;2022-10-30T09:40:37;17.70;99.90
20167;DHT22;10243;49.118;8.508;2022-10-30T09:43:51;17.70;99.90
20167;DHT22;10243;49.118;8.508;2022-10-30T09:47:02;17.80;99.90
20167;DHT22;10243;49.118;8.508;2022-10-30T09:50:21;17.90;99.90
20167;DHT22;10243;49.118;8.508;2022-10-30T09:53:32;18.00;99.90
20167;DHT22;10243;49.118;8.508;2022-10-30T09:56:48;18.10;99.90
20167;DHT22;10243;49.118;8.508;2022-10-30T10:00:03;18.10;99.90
20167;DHT22;10243;49.118;8.508;2022-10-30T10:03:35;18.20;99.90
20167;DHT22;10243;49.118;8.508;2022-10-30T10:07:15;18.20;99.90
20167;DHT22;10243;49.118;8.508;2022-10-30T10:10:37;18.30;99.90
20167;DHT22;10243;49.118;8.508;2022-10-30T10:13:50;18.40;99.90
20167;DHT22;10243;49.118;8.508;2022-10-30T10:16:54;18.40;99.90
20167;DHT22;10243;49.118;8.508;2022-10-30T10:19:57;18.50;99.90
20167;DHT22;10243;49.118;8.508;2022-10-30T10:23:05;18.60;99.90
20167;DHT22;10243;49.118;8.508;2022-10-30T10:26:25;18.70;99.90
20167;DHT22;10243;49.118;8.508;2022-10-30T10:29:32;18.80;99.90
20167;DHT22;10243;49.118;8.508;2022-10-30T10:32:47;18.80;99.90
20167;DHT22;10243;49.118;8.508;2022-10-30T10:36:04;18.90;99.90
20167;DHT22;10243;49.118;8.508;2022-10-30T10:39:21;19.00;99.90
20167;DHT22;10243;49.118;8.508;2022-10-30T10:42:33;19.10;99.90
20167;DHT22;10243;49.118;8.508;2022-10-30T10:45:43;19.10;99.90
20167;DHT22;10243;49.118;8.508;2022-10-30T10:48:59;19.20;99.90
20167;DHT22;10243;49.118;8.508;2022-10-30T10:52:08;19.30;99.90
20167;DHT22;10243;49.118;8.508;2022-10-30T10:55:15;19.30;99.90
20167;DHT22;10243;49.118;8.508;2022-10-30T10:58:24;19.50;99.90
20167;DHT22;10243;49.118;8.508;2022-10-30T11:01:32;19.60;99.90
20167;DHT22;10243;49.118;8.508;2022-10-30T11:04:38;19.80;99.90
20167;DHT22;10243;49.118;8.508;2022-10-30T11:07:45;19.90;99.90
20167;DHT22;10243;49.118;8.508;2022-10-30T11:10:49;20.00;99.90
20167;DHT22;10243;49.118;8.508;2022-10-30T11:13:53;20.10;99.90
20167;DHT22;10243;49.118;8.508;2022-10-30T11:17:10;20.20;99.90
20167;DHT22;10243;49.118;8.508;2022-10-30T11:20:18;20.20;99.90
20167;DHT22;10243;49.118;8.508;2022-10-30T11:23:46;20.20;99.90
20167;DHT22;10243;49.118;8.508;2022-10-30T11:26:48;20.20;99.90
20167;DHT22;10243;49.118;8.508;2022-10-30T11:29:53;20.20;99.90
20167;DHT22;10243;49.118;8.508;2022-10-30T11:32:58;20.20;99.90
20167;DHT22;10243;49.118;8.508;2022-10-30T11:36:07;20.20;99.90
20167;DHT22;10243;49.118;8.508;2022-10-30T11:39:10;20.30;99.90
20167;DHT22;10243;49.118;8.508;2022-10-30T11:42:14;20.30;99.90
20167;DHT22;10243;49.118;8.508;2022-10-30T11:45:23;20.30;99.90
20167;DHT22;10243;49.118;8.508;2022-10-30T11:48:29;20.30;99.90
20167;DHT22;10243;49.118;8.508;2022-10-30T11:51:35;20.30;99.90
20167;DHT22;10243;49.118;8.508;2022-10-30T11:54:42;20.30;99.90
20167;DHT22;10243;49.118;8.508;2022-10-30T11:57:47;20.30;99.90
20167;DHT22;10243;49.118;8.508;2022-10-30T12:01:00;20.30;99.90
20167;DHT22;10243;49.118;8.508;2022-10-30T12:04:14;20.30;99.90
20167;DHT22;10243;49.118;8.508;2022-10-30T12:07:23;20.30;99.90
20167;DHT22;10243;49.118;8.508;2022-10-30T12:10:27;20.40;99.90
20167;DHT22;10243;49.118;8.508;2022-10-30T12:13:35;20.40;99.90
20167;DHT22;10243;49.118;8.508;2022-10-30T12:16:44;20.60;99.90
20167;DHT22;10243;49.118;8.508;2022-10-30T12:19:49;20.60;99.90
20167;DHT22;10243;49.118;8.508;2022-10-30T12:22:52;20.70;99.90
20167;DHT22;10243;49.118;8.508;2022-10-30T12:25:55;20.70;99.90
20167;DHT22;10243;49.118;8.508;2022-10-30T12:29:00;20.70;99.90
20167;DHT22;10243;49.118;8.508;2022-10-30T12:32:06;20.80;99.90
20167;DHT22;10243;49.118;8.508;2022-10-30T12:38:43;20.80;99.90
20167;DHT22;10243;49.118;8.508;2022-10-30T12:41:52;20.90;99.90
20167;DHT22;10243;49.118;8.508;2022-10-30T12:45:06;20.90;99.90
20167;DHT22;10243;49.118;8.508;2022-10-30T12:48:16;20.90;99.90
20167;DHT22;10243;49.118;8.508;2022-10-30T12:51:25;20.90;99.90
20167;DHT22;10243;49.118;8.508;2022-10-30T12:54:34;21.00;99.90
20167;DHT22;10243;49.118;8.508;2022-10-30T12:57:43;21.00;99.90
20167;DHT22;10243;49.118;8.508;2022-10-30T13:00:53;21.00;99.90
20167;DHT22;10243;49.118;8.508;2022-10-30T13:04:06;21.10;99.90
20167;DHT22;10243;49.118;8.508;2022-10-30T13:07:14;21.20;99.90
20167;DHT22;10243;49.118;8.508;2022-10-30T13:10:24;21.10;99.90
20167;DHT22;10243;49.118;8.508;2022-10-30T13:13:31;21.20;99.90
20167;DHT22;10243;49.118;8.508;2022-10-30T13:16:34;21.20;99.90
20167;DHT22;10243;49.118;8.508;2022-10-30T13:19:38;21.30;99.90
20167;DHT22;10243;49.118;8.508;2022-10-30T13:22:45;21.30;99.90
20167;DHT22;10243;49.118;8.508;2022-10-30T13:25:58;21.30;99.90
20167;DHT22;10243;49.118;8.508;2022-10-30T13:29:11;21.30;99.90
20167;DHT22;10243;49.118;8.508;2022-10-30T13:32:30;21.50;99.90
20167;DHT22;10243;49.118;8.508;2022-10-30T13:35:40;21.40;99.90
20167;DHT22;10243;49.118;8.508;2022-10-30T13:38:51;21.50;99.90
20167;DHT22;10243;49.118;8.508;2022-10-30T13:42:21;21.60;99.90
20167;DHT22;10243;49.118;8.508;2022-10-30T13:45:49;21.60;99.90
20167;DHT22;10243;49.118;8.508;2022-10-30T13:49:10;21.70;99.90
20167;DHT22;10243;49.118;8.508;2022-10-30T13:52:16;21.70;99.90
20167;DHT22;10243;49.118;8.508;2022-10-30T13:55:22;21.70;99.90
20167;DHT22;10243;49.118;8.508;2022-10-30T13:58:32;21.60;99.90
20167;DHT22;10243;49.118;8.508;2022-10-30T14:01:39;21.60;99.90
20167;DHT22;10243;49.118;8.508;2022-10-30T14:04:51;21.60;99.90
20167;DHT22;10243;49.118;8.508;2022-10-30T14:08:02;21.60;99.90
20167;DHT22;10243;49.118;8.508;2022-10-30T14:11:09;21.60;99.90
20167;DHT22;10243;49.118;8.508;2022-10-30T14:14:27;21.60;99.90
20167;DHT22;10243;49.118;8.508;2022-10-30T14:17:29;21.50;99.90
20167;DHT22;10243;49.118;8.508;2022-10-30T14:20:31;21.40;99.90
20167;DHT22;10243;49.118;8.508;2022-10-30T14:23:35;21.40;99.90
20167;DHT22;10243;49.118;8.508;2022-10-30T14:26:39;21.40;99.90
20167;DHT22;10243;49.118;8.508;2022-10-30T14:29:48;21.40;99.90
20167;DHT22;10243;49.118;8.508;2022-10-30T14:32:51;21.40;99.90
20167;DHT22;10243;49.118;8.508;2022-10-30T14:36:11;21.40;99.90
20167;DHT22;10243;49.118;8.508;2022-10-30T14:42:35;21.50;99.90
20167;DHT22;10243;49.118;8.508;2022-10-30T14:45:44;21.80;99.90
20167;DHT22;10243;49.118;8.508;2022-10-30T14:48:58;21.90;99.90
20167;DHT22;10243;49.118;8.508;2022-10-30T14:52:12;22.00;99.90
20167;DHT22;10243;49.118;8.508;2022-10-30T14:55:28;22.00;99.90
20167;DHT22;10243;49.118;8.508;2022-10-30T14:58:34;22.00;99.90
20167;DHT22;10243;49.118;8.508;2022-10-30T15:01:42;21.90;99.90
20167;DHT22;10243;49.118;8.508;2022-10-30T15:05:07;21.90;99.90
20167;DHT22;10243;49.118;8.508;2022-10-30T15:08:32;21.70;99.90
20167;DHT22;10243;49.118;8.508;2022-10-30T15:12:01;21.60;99.90
20167;DHT22;10243;49.118;8.508;2022-10-30T15:15:11;21.50;99.90
20167;DHT22;10243;49.118;8.508;2022-10-30T15:18:16;21.40;99.90
20167;DHT22;10243;49.118;8.508;2022-10-30T15:21:20;21.40;99.90
20167;DHT22;10243;49.118;8.508;2022-10-30T15:24:26;21.40;99.90
20167;DHT22;10243;49.118;8.508;2022-10-30T15:27:31;21.30;99.90
20167;DHT22;10243;49.118;8.508;2022-10-30T15:30:36;21.20;99.90
20167;DHT22;10243;49.118;8.508;2022-10-30T15:33:40;20.90;99.90
20167;DHT22;10243;49.118;8.508;2022-10-30T15:36:41;20.90;99.90
20167;DHT22;10243;49.118;8.508;2022-10-30T15:39:43;20.70;99.90
20167;DHT22;10243;49.118;8.508;2022-10-30T15:42:46;20.10;99.90
20167;DHT22;10243;49.118;8.508;2022-10-30T15:45:51;20.50;99.90
20167;DHT22;10243;49.118;8.508;2022-10-30T15:48:55;20.30;99.90
20167;DHT22;10243;49.118;8.508;2022-10-30T15:51:58;20.20;99.90
20167;DHT22;10243;49.118;8.508;2022-10-30T15:55:04;20.10;99.90
20167;DHT22;10243;49.118;8.508;2022-10-30T15:58:15;20.00;99.90
20167;DHT22;10243;49.118;8.508;2022-10-30T16:01:26;19.90;99.90
20167;DHT22;10243;49.118;8.508;2022-10-30T16:04:34;19.90;99.90
20167;DHT22;10243;49.118;8.508;2022-10-30T16:07:43;19.90;99.90
20167;DHT22;10243;49.118;8.508;2022-10-30T16:10:47;19.90;99.90
20167;DHT22;10243;49.118;8.508;2022-10-30T16:13:50;19.90;99.90
20167;DHT22;10243;49.118;8.508;2022-10-30T16:16:53;19.60;99.90
20167;DHT22;10243;49.118;8.508;2022-10-30T16:19:59;19.50;99.90
20167;DHT22;10243;49.118;8.508;2022-10-30T16:23:03;19.50;99.90
20167;DHT22;10243;49.118;8.508;2022-10-30T16:26:23;19.40;99.90
20167;DHT22;10243;49.118;8.508;2022-10-30T16:29:25;19.50;99.90
20167;DHT22;10243;49.118;8.508;2022-10-30T16:32:30;19.30;99.90
20167;DHT22;10243;49.118;8.508;2022-10-30T16:35:32;19.20;99.90
20167;DHT22;10243;49.118;8.508;2022-10-30T16:38:35;19.40;99.90
20167;DHT22;10243;49.118;8.508;2022-10-30T16:41:38;19.40;99.90
20167;DHT22;10243;49.118;8.508;2022-10-30T16:44:40;19.20;99.90
20167;DHT22;10243;49.118;8.508;2022-10-30T16:47:45;18.90;99.90
20167;DHT22;10243;49.118;8.508;2022-10-30T16:50:49;18.80;99.90
20167;DHT22;10243;49.118;8.508;2022-10-30T16:53:52;18.70;99.90
20167;DHT22;10243;49.118;8.508;2022-10-30T16:56:56;18.70;99.90
20167;DHT22;10243;49.118;8.508;2022-10-30T16:59:59;18.60;99.90
20167;DHT22;10243;49.118;8.508;2022-10-30T17:03:07;18.60;99.90
20167;DHT22;10243;49.118;8.508;2022-10-30T17:06:25;18.50;99.90
20167;DHT22;10243;49.118;8.508;2022-10-30T17:09:28;18.40;99.90
20167;DHT22;10243;49.118;8.508;2022-10-30T17:12:30;18.40;99.90
20167;DHT22;10243;49.118;8.508;2022-10-30T17:15:32;18.50;99.90
20167;DHT22;10243;49.118;8.508;2022-10-30T17:18:35;18.20;99.90
20167;DHT22;10243;49.118;8.508;2022-10-30T17:21:39;17.90;99.90
20167;DHT22;10243;49.118;8.508;2022-10-30T17:24:42;17.80;99.90
20167;DHT22;10243;49.118;8.508;2022-10-30T17:27:46;18.00;99.90
20167;DHT22;10243;49.118;8.508;2022-10-30T17:30:48;17.80;99.90
20167;DHT22;10243;49.118;8.508;2022-10-30T17:34:11;17.60;99.90
20167;DHT22;10243;49.118;8.508;2022-10-30T17:37:13;17.50;99.90
20167;DHT22;10243;49.118;8.508;2022-10-30T17:40:15;17.60;99.90
20167;DHT22;10243;49.118;8.508;2022-10-30T17:43:18;17.90;99.90
20167;DHT22;10243;49.118;8.508;2022-10-30T17:46:21;17.80;99.90
20167;DHT22;10243;49.118;8.508;2022-10-30T17:49:26;17.70;99.90
20167;DHT22;10243;49.118;8.508;2022-10-30T17:52:29;17.40;99.90
20167;DHT22;10243;49.118;8.508;2022-10-30T17:55:33;17.30;99.90
20167;DHT22;10243;49.118;8.508;2022-10-30T17:58:35;17.20;99.90
20167;DHT22;10243;49.118;8.508;2022-10-30T18:01:37;17.20;99.90
20167;DHT22;10243;49.118;8.508;2022-10-30T18:04:40;17.10;99.90
20167;DHT22;10243;49.118;8.508;2022-10-30T18:07:43;17.10;99.90
20167;DHT22;10243;49.118;8.508;2022-10-30T18:10:45;17.00;99.90
20167;DHT22;10243;49.118;8.508;2022-10-30T18:13:48;17.00;99.90
20167;DHT22;10243;49.118;8.508;2022-10-30T18:16:51;17.00;99.90
20167;DHT22;10243;49.118;8.508;2022-10-30T18:19:54;17.10;99.90
20167;DHT22;10243;49.118;8.508;2022-10-30T18:22:56;17.20;99.90
20167;DHT22;10243;49.118;8.508;2022-10-30T18:25:58;17.20;99.90
20167;DHT22;10243;49.118;8.508;2022-10-30T18:29:00;17.30;99.90
20167;DHT22;10243;49.118;8.508;2022-10-30T18:32:02;17.20;99.90
20167;DHT22;10243;49.118;8.508;2022-10-30T18:35:12;16.90;99.90
20167;DHT22;10243;49.118;8.508;2022-10-30T18:38:14;17.10;99.90
20167;DHT22;10243;49.118;8.508;2022-10-30T18:41:19;17.20;99.90
20167;DHT22;10243;49.118;8.508;2022-10-30T18:44:22;17.20;99.90
20167;DHT22;10243;49.118;8.508;2022-10-30T18:47:24;17.10;99.90
20167;DHT22;10243;49.118;8.508;2022-10-30T18:50:28;17.10;99.90
20167;DHT22;10243;49.118;8.508;2022-10-30T18:53:30;17.10;99.90
20167;DHT22;10243;49.118;8.508;2022-10-30T18:56:32;16.90;99.90
20167;DHT22;10243;49.118;8.508;2022-10-30T18:59:34;16.80;99.90
20167;DHT22;10243;49.118;8.508;2022-10-30T19:02:36;16.90;99.90
20167;DHT22;10243;49.118;8.508;2022-10-30T19:05:42;16.90;99.90
20167;DHT22;10243;49.118;8.508;2022-10-30T19:08:44;16.80;99.90
20167;DHT22;10243;49.118;8.508;2022-10-30T19:11:46;16.50;99.90
20167;DHT22;10243;49.118;8.508;2022-10-30T19:14:48;16.60;99.90
20167;DHT22;10243;49.118;8.508;2022-10-30T19:17:50;16.50;99.90
20167;DHT22;10243;49.118;8.508;2022-10-30T19:20:54;16.70;99.90
20167;DHT22;10243;49.118;8.508;2022-10-30T19:23:57;16.40;99.90
20167;DHT22;10243;49.118;8.508;2022-10-30T19:26:59;16.20;99.90
20167;DHT22;10243;49.118;8.508;2022-10-30T19:30:01;16.20;99.90
20167;DHT22;10243;49.118;8.508;2022-10-30T19:33:03;16.10;99.90
20167;DHT22;10243;49.118;8.508;2022-10-30T19:36:26;16.20;99.90
20167;DHT22;10243;49.118;8.508;2022-10-30T19:39:28;16.20;99.90
20167;DHT22;10243;49.118;8.508;2022-10-30T19:42:32;16.20;99.90
20167;DHT22;10243;49.118;8.508;2022-10-30T19:45:34;16.20;99.90
20167;DHT22;10243;49.118;8.508;2022-10-30T19:48:36;16.00;99.90